Time;durP1;ratioP1;P1;durP2;ratioP2;P2;SDS_P1;SDS_P2;PMS_P1;PMS_P2;Temp;Humidity;BMP_temperature;BMP_pressure;BME280_temperature;BME280_humidity;BME280_pressure;Samples;Min_cycle;Max_cycle;Signal;HPM_P1;HPM_P2
2021/07/02 00:00:10;;;;;;;6.63;4.80;;;17.00;99.90;;;;;;4945964;29;20469;-64
2021/07/02 00:02:36;;;;;;;6.60;5.30;;;17.00;99.90;;;;;;4955114;29;20176;-64
2021/07/02 00:05:03;;;;;;;6.90;5.13;;;17.00;99.90;;;;;;4955517;29;20409;-64
2021/07/02 00:07:29;;;;;;;6.50;5.50;;;16.90;99.90;;;;;;4953472;28;20703;-64
2021/07/02 00:09:54;;;;;;;5.63;5.07;;;16.90;99.90;;;;;;4955198;29;20411;-64
2021/07/02 00:12:20;;;;;;;6.60;5.50;;;16.90;99.90;;;;;;4955066;29;20527;-64
2021/07/02 00:14:46;;;;;;;6.80;5.23;;;16.90;99.90;;;;;;4955319;29;20203;-64
2021/07/02 00:17:11;;;;;;;6.87;5.50;;;16.80;99.90;;;;;;4955222;28;20628;-64
2021/07/02 00:19:37;;;;;;;6.60;5.20;;;16.80;99.90;;;;;;4955123;29;20177;-64
2021/07/02 00:22:03;;;;;;;6.43;4.73;;;16.80;99.90;;;;;;4955212;29;20173;-64
2021/07/02 00:24:28;;;;;;;5.70;5.10;;;16.80;99.90;;;;;;4955460;29;20174;-64
2021/07/02 00:26:54;;;;;;;6.33;4.80;;;16.80;99.90;;;;;;4954778;28;20207;-64
2021/07/02 00:29:20;;;;;;;5.90;4.90;;;16.70;99.90;;;;;;4955120;29;20244;-64
2021/07/02 00:31:46;;;;;;;7.33;5.73;;;16.70;99.90;;;;;;4955414;29;20535;-64
2021/07/02 00:34:11;;;;;;;6.50;5.10;;;16.70;99.90;;;;;;4955577;29;20619;-64
2021/07/02 00:36:37;;;;;;;5.93;5.23;;;16.70;99.90;;;;;;4955190;28;20688;-63
2021/07/02 00:39:03;;;;;;;6.00;5.40;;;16.60;99.90;;;;;;4962185;29;20180;-64
2021/07/02 00:41:28;;;;;;;6.73;5.10;;;16.60;99.90;;;;;;4959552;29;20250;-64
2021/07/02 00:43:56;;;;;;;6.20;5.60;;;16.50;99.90;;;;;;4956656;29;20478;-64
2021/07/02 00:46:23;;;;;;;5.80;5.00;;;16.50;99.90;;;;;;4962970;28;20202;-64
2021/07/02 00:48:49;;;;;;;5.73;5.23;;;16.50;99.90;;;;;;4962208;29;20412;-64
2021/07/02 00:51:15;;;;;;;6.43;5.73;;;16.50;99.90;;;;;;4955206;29;20412;-63
2021/07/02 00:53:42;;;;;;;6.70;5.63;;;16.40;99.90;;;;;;4954854;29;20416;-64
2021/07/02 00:56:09;;;;;;;6.27;5.40;;;16.40;99.90;;;;;;4954441;28;20211;-64
2021/07/02 00:58:35;;;;;;;8.40;5.67;;;16.40;99.90;;;;;;4957547;28;20412;-64
2021/07/02 01:01:02;;;;;;;8.70;5.30;;;16.40;99.90;;;;;;4958351;29;20419;-64
2021/07/02 01:03:27;;;;;;;7.07;5.63;;;16.30;99.90;;;;;;4958344;29;20756;-64
2021/07/02 01:05:54;;;;;;;6.73;5.83;;;16.30;99.90;;;;;;4958214;28;20449;-64
2021/07/02 01:08:21;;;;;;;10.43;6.27;;;16.20;99.90;;;;;;4997008;23;20713;-65
2021/07/02 01:10:46;;;;;;;10.93;6.53;;;16.30;99.90;;;;;;4977229;28;20494;-65
2021/07/02 01:13:12;;;;;;;7.77;6.37;;;16.20;99.90;;;;;;4977204;28;20488;-65
2021/07/02 01:15:38;;;;;;;8.30;6.43;;;16.30;99.90;;;;;;4977342;28;20698;-65
2021/07/02 01:18:08;;;;;;;6.17;5.47;;;16.40;99.90;;;;;;4977061;28;20190;-65
2021/07/02 01:20:33;;;;;;;7.70;6.27;;;16.40;99.90;;;;;;4976575;28;20167;-65
2021/07/02 01:22:59;;;;;;;6.03;4.93;;;16.50;99.90;;;;;;4976883;28;20904;-65
2021/07/02 01:25:34;;;;;;;6.53;5.13;;;16.50;99.90;;;;;;4977238;28;20231;-65
2021/07/02 01:28:00;;;;;;;5.80;5.20;;;16.60;99.90;;;;;;4976595;28;20196;-65
2021/07/02 01:30:27;;;;;;;6.20;5.30;;;16.60;99.90;;;;;;4977033;28;20416;-64
2021/07/02 01:32:53;;;;;;;6.50;5.90;;;16.60;99.90;;;;;;4976880;28;20414;-65
2021/07/02 01:35:19;;;;;;;5.97;5.40;;;16.60;99.90;;;;;;4976712;28;20450;-65
2021/07/02 01:37:45;;;;;;;6.53;5.93;;;16.60;99.90;;;;;;4976454;28;21046;-65
2021/07/02 01:40:11;;;;;;;5.57;5.07;;;16.70;99.90;;;;;;4976339;28;20171;-65
2021/07/02 01:42:37;;;;;;;6.70;6.00;;;16.60;99.90;;;;;;4976072;28;20502;-65
2021/07/02 01:45:05;;;;;;;7.40;5.80;;;16.70;99.90;;;;;;4976629;28;20442;-65
2021/07/02 01:47:31;;;;;;;6.90;6.27;;;16.70;99.90;;;;;;4976571;28;20258;-64
2021/07/02 01:49:56;;;;;;;5.87;5.27;;;16.70;99.90;;;;;;4976532;28;20433;-65
2021/07/02 01:52:22;;;;;;;6.80;5.93;;;16.70;99.90;;;;;;4976384;28;20173;-65
2021/07/02 01:54:48;;;;;;;5.83;5.20;;;16.70;99.90;;;;;;4976340;28;20201;-65
2021/07/02 01:57:21;;;;;;;6.33;5.73;;;16.60;99.90;;;;;;4976092;28;20193;-65
2021/07/02 01:59:46;;;;;;;6.80;5.73;;;16.60;99.90;;;;;;4976442;28;20159;-65
2021/07/02 02:02:12;;;;;;;6.63;6.00;;;16.60;99.90;;;;;;4976251;28;20821;-65
2021/07/02 02:04:38;;;;;;;7.00;6.00;;;16.50;99.90;;;;;;4976257;28;20179;-65
2021/07/02 02:07:03;;;;;;;6.20;5.60;;;16.50;99.90;;;;;;4975763;28;20225;-65
2021/07/02 02:09:29;;;;;;;6.63;5.57;;;16.60;99.90;;;;;;4975969;28;20933;-65
2021/07/02 02:11:55;;;;;;;8.50;6.87;;;16.50;99.90;;;;;;4976042;28;20172;-65
2021/07/02 02:14:20;;;;;;;6.37;5.40;;;16.50;99.90;;;;;;4976043;28;20200;-65
2021/07/02 02:16:46;;;;;;;6.00;5.40;;;16.40;99.90;;;;;;4975950;28;20276;-65
2021/07/02 02:19:11;;;;;;;6.67;6.07;;;16.30;99.90;;;;;;4976026;28;20178;-65
2021/07/02 02:21:37;;;;;;;6.53;5.93;;;16.30;99.90;;;;;;4976340;28;20205;-65
2021/07/02 02:24:03;;;;;;;6.27;5.67;;;16.20;99.90;;;;;;4976157;28;20178;-65
2021/07/02 02:26:28;;;;;;;8.47;5.60;;;16.20;99.90;;;;;;4975524;28;20180;-65
2021/07/02 02:28:54;;;;;;;10.57;6.63;;;16.20;99.90;;;;;;4976419;28;20171;-65
2021/07/02 02:31:20;;;;;;;8.50;6.03;;;16.20;99.90;;;;;;4975732;28;20167;-65
2021/07/02 02:33:45;;;;;;;6.70;5.73;;;16.10;99.90;;;;;;4975678;28;20560;-65
2021/07/02 02:36:11;;;;;;;8.93;6.23;;;16.00;99.90;;;;;;4966152;28;20197;-65
2021/07/02 02:38:36;;;;;;;5.47;4.97;;;16.00;99.90;;;;;;4968441;28;20205;-65
2021/07/02 02:41:02;;;;;;;6.87;6.17;;;16.00;99.90;;;;;;4956290;29;20581;-65
2021/07/02 02:43:28;;;;;;;8.60;5.63;;;16.00;99.90;;;;;;4955995;28;20682;-65
2021/07/02 02:45:54;;;;;;;8.87;5.50;;;16.00;99.90;;;;;;4956183;29;20405;-65
2021/07/02 02:48:20;;;;;;;6.73;6.07;;;15.90;99.90;;;;;;4956112;29;20197;-65
2021/07/02 02:50:45;;;;;;;7.00;5.90;;;15.90;99.90;;;;;;4956112;28;20310;-65
2021/07/02 02:53:11;;;;;;;6.00;5.50;;;16.00;99.90;;;;;;4956289;29;20173;-65
2021/07/02 02:55:36;;;;;;;7.80;6.40;;;15.90;99.90;;;;;;4957935;28;20717;-65
2021/07/02 02:58:02;;;;;;;6.87;5.40;;;15.80;99.90;;;;;;4974945;28;20193;-65
2021/07/02 03:00:28;;;;;;;10.57;6.90;;;15.70;99.90;;;;;;4975232;28;20163;-65
2021/07/02 03:02:53;;;;;;;6.97;6.27;;;15.60;99.90;;;;;;4975178;28;20660;-65
2021/07/02 03:05:19;;;;;;;8.10;7.30;;;15.60;99.90;;;;;;4975159;28;20175;-65
2021/07/02 03:07:44;;;;;;;6.70;6.00;;;15.50;99.90;;;;;;4975031;28;20217;-65
2021/07/02 03:10:10;;;;;;;7.63;5.93;;;15.40;99.90;;;;;;4975385;28;20168;-65
2021/07/02 03:12:36;;;;;;;9.00;6.70;;;15.50;99.90;;;;;;4974504;28;20179;-65
2021/07/02 03:15:03;;;;;;;7.73;6.67;;;15.40;99.90;;;;;;4975679;28;20443;-65
2021/07/02 03:17:29;;;;;;;7.07;6.37;;;15.40;99.90;;;;;;4974918;28;20192;-65
2021/07/02 03:19:54;;;;;;;6.60;6.00;;;15.40;99.90;;;;;;4973129;28;20853;-65
2021/07/02 03:22:20;;;;;;;5.87;5.33;;;15.40;99.90;;;;;;4974896;28;20177;-65
2021/07/02 03:24:45;;;;;;;7.70;6.40;;;15.40;99.90;;;;;;4974911;28;20179;-65
2021/07/02 03:27:11;;;;;;;7.30;6.40;;;15.40;99.90;;;;;;4973004;28;20737;-65
2021/07/02 03:29:37;;;;;;;6.70;6.07;;;15.30;99.90;;;;;;4974861;28;20218;-64
2021/07/02 03:32:03;;;;;;;7.60;6.80;;;15.30;99.90;;;;;;4975287;28;20229;-65
2021/07/02 03:34:29;;;;;;;6.50;5.83;;;15.20;99.90;;;;;;4973569;28;20675;-65
2021/07/02 03:36:54;;;;;;;6.83;6.00;;;15.20;99.90;;;;;;4974175;28;20439;-65
2021/07/02 03:39:20;;;;;;;9.40;6.90;;;15.20;99.90;;;;;;4974644;28;20269;-65
2021/07/02 03:41:46;;;;;;;7.27;6.57;;;15.20;99.90;;;;;;4974255;28;20541;-65
2021/07/02 03:44:11;;;;;;;6.93;6.23;;;15.20;99.90;;;;;;4974600;28;20173;-65
2021/07/02 03:46:37;;;;;;;8.60;7.70;;;15.30;99.90;;;;;;4974919;28;20730;-65
2021/07/02 03:49:03;;;;;;;7.20;6.50;;;15.30;99.90;;;;;;4974874;28;20163;-65
2021/07/02 03:51:28;;;;;;;6.97;6.27;;;15.20;99.90;;;;;;4975035;28;20295;-65
2021/07/02 03:53:54;;;;;;;6.70;6.00;;;15.20;99.90;;;;;;4974761;28;20176;-65
2021/07/02 03:56:19;;;;;;;7.90;7.10;;;15.20;99.90;;;;;;4974167;28;20634;-66
2021/07/02 03:58:45;;;;;;;7.47;6.60;;;15.20;99.90;;;;;;4974141;28;20188;-65
2021/07/02 04:01:11;;;;;;;8.93;7.03;;;15.20;99.90;;;;;;4974400;28;20168;-65
2021/07/02 04:03:36;;;;;;;6.70;6.00;;;15.00;99.90;;;;;;4974567;28;20212;-65
2021/07/02 04:06:02;;;;;;;7.97;6.80;;;15.10;99.90;;;;;;4974403;28;20166;-65
2021/07/02 04:08:28;;;;;;;7.07;6.40;;;15.00;99.90;;;;;;4974187;28;20208;-65
2021/07/02 04:10:54;;;;;;;7.10;6.43;;;15.10;99.90;;;;;;4972773;28;20787;-65
2021/07/02 04:13:20;;;;;;;8.20;7.27;;;15.20;99.90;;;;;;4974098;28;20208;-65
2021/07/02 04:15:45;;;;;;;7.53;6.80;;;15.30;99.90;;;;;;4974396;28;20195;-65
2021/07/02 04:18:11;;;;;;;9.10;7.53;;;15.40;99.90;;;;;;4974059;28;20423;-65
2021/07/02 04:20:37;;;;;;;10.00;7.37;;;15.50;99.90;;;;;;4974380;28;20321;-65
2021/07/02 04:23:04;;;;;;;10.23;8.00;;;15.60;99.90;;;;;;4974172;28;20506;-65
2021/07/02 04:25:30;;;;;;;13.70;7.47;;;15.60;99.90;;;;;;4974045;28;20788;-65
2021/07/02 04:27:55;;;;;;;7.73;6.17;;;15.70;99.90;;;;;;4973703;28;20425;-64
2021/07/02 04:30:21;;;;;;;7.10;6.00;;;15.90;99.90;;;;;;4974111;28;20194;-65
2021/07/02 04:32:47;;;;;;;8.37;7.13;;;15.90;99.90;;;;;;4977019;28;20515;-65
2021/07/02 04:35:13;;;;;;;6.93;6.23;;;16.00;99.90;;;;;;4977876;28;20617;-65
2021/07/02 04:37:40;;;;;;;7.93;7.10;;;15.90;99.90;;;;;;4977958;28;20543;-65
2021/07/02 04:40:08;;;;;;;8.50;7.27;;;16.00;99.90;;;;;;4978055;28;20409;-65
2021/07/02 04:42:34;;;;;;;8.73;7.40;;;16.20;99.90;;;;;;4977405;28;20491;-65
2021/07/02 04:45:00;;;;;;;7.83;7.03;;;16.30;99.90;;;;;;4977677;28;20411;-65
2021/07/02 04:47:26;;;;;;;6.30;5.60;;;16.30;99.90;;;;;;4977836;28;20265;-63
2021/07/02 04:49:52;;;;;;;7.77;6.73;;;16.30;99.90;;;;;;4977848;28;20444;-65
2021/07/02 04:52:18;;;;;;;9.50;7.00;;;16.40;99.90;;;;;;4977478;28;20470;-65
2021/07/02 04:54:44;;;;;;;7.80;6.70;;;16.50;99.90;;;;;;4977386;28;20655;-65
2021/07/02 04:57:09;;;;;;;9.00;7.33;;;16.60;99.90;;;;;;4977327;28;20227;-65
2021/07/02 04:59:37;;;;;;;7.83;6.60;;;16.60;99.90;;;;;;4976124;28;20781;-65
2021/07/02 05:02:03;;;;;;;7.70;6.60;;;16.70;99.90;;;;;;4977726;28;20241;-65
2021/07/02 05:04:29;;;;;;;7.40;6.60;;;16.80;99.90;;;;;;4977376;28;20905;-65
2021/07/02 05:06:56;;;;;;;7.57;6.87;;;16.90;99.90;;;;;;4977479;28;20542;-65
2021/07/02 05:09:22;;;;;;;8.00;7.10;;;16.80;99.90;;;;;;4977179;28;20183;-65
2021/07/02 05:11:48;;;;;;;7.33;6.63;;;16.80;99.90;;;;;;4976836;28;20471;-65
2021/07/02 05:14:14;;;;;;;7.33;6.57;;;16.90;99.90;;;;;;4977028;28;20412;-65
2021/07/02 05:16:40;;;;;;;8.30;6.60;;;16.90;99.90;;;;;;4977018;28;20799;-65
2021/07/02 05:19:06;;;;;;;6.50;5.90;;;16.80;99.90;;;;;;4977398;28;20415;-65
2021/07/02 05:21:31;;;;;;;7.67;6.97;;;16.90;99.90;;;;;;4977017;28;20407;-65
2021/07/02 05:23:57;;;;;;;7.07;6.37;;;16.70;99.90;;;;;;4977443;28;20219;-65
2021/07/02 05:26:23;;;;;;;7.10;6.40;;;16.60;99.90;;;;;;4976802;28;20185;-65
2021/07/02 05:28:49;;;;;;;7.47;6.77;;;16.50;99.90;;;;;;4974020;28;20199;-64
2021/07/02 05:31:16;;;;;;;8.87;7.30;;;16.80;99.90;;;;;;4967058;28;20818;-63
2021/07/02 05:33:42;;;;;;;7.60;6.80;;;16.90;99.90;;;;;;4976581;28;20177;-65
2021/07/02 05:36:08;;;;;;;7.77;6.97;;;17.00;99.90;;;;;;4977608;28;20453;-66
2021/07/02 05:38:33;;;;;;;7.67;6.97;;;16.90;99.90;;;;;;4976923;28;20808;-66
2021/07/02 05:40:59;;;;;;;7.83;6.30;;;17.10;99.90;;;;;;4976335;28;20175;-66
2021/07/02 05:43:25;;;;;;;6.40;5.83;;;17.00;99.90;;;;;;4975542;28;20227;-65
2021/07/02 05:45:51;;;;;;;7.03;6.30;;;17.20;99.90;;;;;;4977374;28;20180;-65
2021/07/02 05:48:19;;;;;;;8.23;6.37;;;17.30;99.90;;;;;;4976296;28;20431;-66
2021/07/02 05:50:48;;;;;;;6.20;5.60;;;17.10;99.90;;;;;;4976805;28;20460;-66
2021/07/02 05:53:15;;;;;;;8.93;7.27;;;17.10;99.90;;;;;;4976340;28;20402;-65
2021/07/02 05:55:41;;;;;;;7.27;6.17;;;17.00;99.90;;;;;;4976433;28;20455;-66
2021/07/02 05:58:06;;;;;;;7.27;6.57;;;17.00;99.90;;;;;;4975626;28;20426;-65
2021/07/02 06:00:33;;;;;;;7.33;6.53;;;17.10;99.90;;;;;;4976210;28;20430;-65
2021/07/02 06:02:58;;;;;;;8.00;6.60;;;17.30;99.90;;;;;;4976367;28;20599;-65
2021/07/02 06:05:24;;;;;;;8.47;7.20;;;17.60;99.90;;;;;;4974939;28;20412;-65
2021/07/02 06:07:52;;;;;;;8.27;7.37;;;17.50;99.90;;;;;;4976396;28;20214;-65
2021/07/02 06:10:20;;;;;;;8.40;7.00;;;17.40;99.90;;;;;;4976104;28;20415;-66
2021/07/02 06:12:47;;;;;;;7.10;6.40;;;17.30;99.90;;;;;;4975507;28;20409;-66
2021/07/02 06:15:16;;;;;;;7.90;6.60;;;17.30;99.90;;;;;;4974639;28;20452;-66
2021/07/02 06:17:42;;;;;;;8.73;6.80;;;17.40;99.90;;;;;;4975863;28;20843;-66
2021/07/02 06:20:09;;;;;;;8.63;7.50;;;17.50;99.90;;;;;;4975655;28;20511;-66
2021/07/02 06:22:36;;;;;;;7.90;6.60;;;17.50;99.90;;;;;;4975803;28;21007;-66
2021/07/02 06:25:03;;;;;;;6.70;6.00;;;17.50;99.90;;;;;;4975681;28;20901;-65
2021/07/02 06:27:28;;;;;;;7.90;7.10;;;17.80;99.90;;;;;;4975325;28;20444;-66
2021/07/02 06:29:54;;;;;;;7.33;6.63;;;17.90;99.90;;;;;;4975549;28;20909;-65
2021/07/02 06:32:20;;;;;;;7.63;6.93;;;17.90;99.90;;;;;;4975439;28;20174;-65
2021/07/02 06:34:46;;;;;;;7.27;6.20;;;18.00;99.90;;;;;;4975865;28;20254;-65
2021/07/02 06:37:11;;;;;;;7.43;6.27;;;18.20;99.90;;;;;;4975589;28;20507;-65
2021/07/02 06:39:37;;;;;;;8.57;7.50;;;18.20;99.90;;;;;;4975740;28;20657;-66
2021/07/02 06:42:03;;;;;;;6.90;6.30;;;18.20;99.90;;;;;;4975404;28;20176;-66
2021/07/02 06:44:29;;;;;;;7.93;6.63;;;18.40;99.90;;;;;;4975485;28;20184;-66
2021/07/02 06:46:54;;;;;;;9.50;6.67;;;18.60;99.90;;;;;;4975420;28;20455;-66
2021/07/02 06:49:20;;;;;;;7.40;6.17;;;18.60;99.90;;;;;;4975436;28;20643;-66
2021/07/02 06:51:45;;;;;;;7.20;6.50;;;18.70;99.90;;;;;;4975468;28;20172;-66
2021/07/02 06:54:11;;;;;;;6.80;6.17;;;18.80;99.90;;;;;;4975126;28;20654;-66
2021/07/02 06:56:36;;;;;;;9.23;7.00;;;19.00;99.90;;;;;;4973910;28;20212;-66
2021/07/02 06:59:02;;;;;;;6.70;6.10;;;19.20;99.90;;;;;;4974993;28;20166;-66
2021/07/02 07:01:28;;;;;;;7.40;6.70;;;19.20;99.90;;;;;;4974823;28;20174;-66
2021/07/02 07:03:53;;;;;;;7.03;6.43;;;19.20;99.90;;;;;;4975303;28;20183;-66
2021/07/02 07:06:19;;;;;;;8.07;6.60;;;19.20;99.90;;;;;;4973513;28;20511;-67
2021/07/02 07:08:44;;;;;;;7.10;6.40;;;19.20;99.90;;;;;;4976439;28;20173;-67
2021/07/02 07:11:10;;;;;;;7.53;6.20;;;19.30;99.90;;;;;;4974917;28;20166;-66
2021/07/02 07:13:41;;;;;;;6.97;6.37;;;19.30;99.90;;;;;;4974672;28;20169;-66
2021/07/02 07:16:07;;;;;;;7.70;5.67;;;19.40;99.90;;;;;;4975148;28;20193;-66
2021/07/02 07:18:33;;;;;;;7.50;6.77;;;19.50;99.90;;;;;;4974696;28;21028;-66
2021/07/02 07:20:59;;;;;;;7.17;6.47;;;19.50;99.90;;;;;;4974998;28;20397;-66
2021/07/02 07:23:25;;;;;;;10.97;6.77;;;19.50;99.90;;;;;;4975118;28;20415;-66
2021/07/02 07:25:51;;;;;;;7.63;5.97;;;19.30;99.90;;;;;;4974950;28;20413;-66
2021/07/02 07:28:18;;;;;;;6.50;5.80;;;19.30;99.90;;;;;;4974122;28;20197;-66
2021/07/02 07:30:44;;;;;;;7.90;6.47;;;19.20;99.90;;;;;;4974432;28;20588;-66
2021/07/02 07:33:10;;;;;;;6.07;5.43;;;19.30;99.90;;;;;;4974731;28;20409;-66
2021/07/02 07:35:40;;;;;;;7.30;6.17;;;19.60;99.90;;;;;;4974714;28;20567;-66
2021/07/02 07:38:05;;;;;;;7.10;6.20;;;19.80;99.90;;;;;;4974536;28;20437;-66
2021/07/02 07:40:31;;;;;;;9.93;6.00;;;20.10;99.90;;;;;;4974529;28;20468;-66
2021/07/02 07:42:58;;;;;;;5.97;5.43;;;19.90;99.90;;;;;;4974080;28;20197;-66
2021/07/02 07:45:24;;;;;;;7.00;6.30;;;19.80;99.90;;;;;;4974751;28;20602;-66
2021/07/02 07:47:50;;;;;;;6.00;5.40;;;19.70;99.90;;;;;;4974246;28;20431;-66
2021/07/02 07:50:21;;;;;;;5.63;5.13;;;19.70;99.90;;;;;;4974809;28;20894;-66
2021/07/02 07:52:52;;;;;;;5.53;5.03;;;19.80;99.90;;;;;;4975223;28;20165;-66
2021/07/02 07:55:19;;;;;;;6.37;5.03;;;19.60;99.90;;;;;;4974455;28;20518;-65
2021/07/02 07:57:45;;;;;;;5.30;4.80;;;19.60;99.90;;;;;;4954802;28;20481;-65
2021/07/02 08:00:11;;;;;;;6.60;6.00;;;19.50;99.90;;;;;;4954838;29;20416;-66
2021/07/02 08:02:37;;;;;;;6.07;5.57;;;19.50;99.90;;;;;;4959546;28;20420;-65
2021/07/02 08:05:04;;;;;;;6.87;6.00;;;19.50;99.90;;;;;;4974088;28;20424;-66
2021/07/02 08:07:37;;;;;;;7.93;6.47;;;19.30;99.90;;;;;;4973648;28;20216;-66
2021/07/02 08:10:06;;;;;;;6.13;5.53;;;19.50;99.90;;;;;;4974300;28;20416;-66
2021/07/02 08:12:32;;;;;;;5.90;5.30;;;19.60;99.90;;;;;;4974228;28;20783;-66
2021/07/02 08:14:57;;;;;;;7.20;6.40;;;19.70;99.90;;;;;;4973911;28;20452;-65
2021/07/02 08:17:25;;;;;;;6.27;5.40;;;19.90;99.90;;;;;;4973523;28;20188;-66
2021/07/02 08:19:50;;;;;;;6.37;5.77;;;20.00;99.90;;;;;;4974106;28;20177;-65
2021/07/02 08:22:16;;;;;;;5.60;5.10;;;20.40;99.90;;;;;;4969220;28;20440;-66
2021/07/02 08:24:41;;;;;;;8.10;5.60;;;20.40;99.90;;;;;;4962999;28;20185;-66
2021/07/02 08:27:08;;;;;;;5.70;5.20;;;20.40;99.90;;;;;;4954485;29;20190;-66
2021/07/02 08:29:33;;;;;;;6.03;5.53;;;20.30;99.90;;;;;;4954647;28;20200;-66
2021/07/02 08:31:59;;;;;;;9.60;6.73;;;20.40;99.90;;;;;;4954896;28;20441;-66
2021/07/02 08:34:25;;;;;;;5.47;4.80;;;20.70;99.90;;;;;;4973442;28;20197;-65
2021/07/02 08:36:51;;;;;;;5.57;5.17;;;20.90;99.90;;;;;;4974669;28;20216;-66
2021/07/02 08:39:17;;;;;;;6.00;5.50;;;21.10;99.90;;;;;;4973800;28;20902;-66
2021/07/02 08:41:43;;;;;;;6.30;5.70;;;21.20;99.90;;;;;;4973986;28;20627;-66
2021/07/02 08:44:08;;;;;;;5.77;5.27;;;21.40;99.90;;;;;;4973720;28;20729;-66
2021/07/02 08:46:35;;;;;;;7.90;6.10;;;21.50;99.90;;;;;;4973909;28;20179;-66
2021/07/02 08:49:02;;;;;;;6.70;5.70;;;21.30;99.90;;;;;;4973307;28;20177;-66
2021/07/02 08:51:27;;;;;;;7.37;6.67;;;21.10;99.90;;;;;;4974020;28;20416;-65
2021/07/02 08:53:54;;;;;;;5.97;5.47;;;21.10;99.90;;;;;;4970765;28;20413;-66
2021/07/02 08:56:21;;;;;;;6.17;5.43;;;21.00;99.90;;;;;;4957345;28;20630;-66
2021/07/02 08:58:46;;;;;;;6.30;5.73;;;21.00;99.90;;;;;;4972422;28;20409;-66
2021/07/02 09:01:35;;;;;;;6.67;5.70;;;21.10;99.90;;;;;;4973690;28;20413;-66
2021/07/02 09:04:25;;;;;;;13.97;5.27;;;21.30;99.90;;;;;;4973168;28;20606;-66
2021/07/02 09:07:09;;;;;;;7.40;5.83;;;21.30;99.90;;;;;;4973501;28;20441;-66
2021/07/02 09:09:49;;;;;;;5.80;5.37;;;21.30;99.90;;;;;;4973565;28;20892;-66
2021/07/02 09:12:17;;;;;;;8.50;5.37;;;21.50;99.90;;;;;;4972395;28;20404;-66
2021/07/02 09:15:04;;;;;;;5.40;4.90;;;21.70;99.60;;;;;;4973542;28;20440;-66
2021/07/02 09:17:30;;;;;;;6.03;5.47;;;21.50;99.90;;;;;;4972990;28;20435;-66
2021/07/02 09:20:03;;;;;;;5.73;5.13;;;21.20;99.90;;;;;;4976457;28;20488;-66
2021/07/02 09:22:39;;;;;;;6.10;5.60;;;21.00;99.90;;;;;;4976927;28;20412;-66
2021/07/02 09:25:10;;;;;;;6.50;5.90;;;20.90;99.90;;;;;;4977089;28;20397;-66
2021/07/02 09:27:38;;;;;;;7.60;5.23;;;20.90;99.90;;;;;;4975511;28;20448;-66
2021/07/02 09:30:12;;;;;;;6.20;5.60;;;21.20;99.90;;;;;;4977018;28;20405;-65
2021/07/02 09:32:41;;;;;;;5.30;4.90;;;21.30;99.90;;;;;;4976416;28;20787;-66
2021/07/02 09:35:07;;;;;;;5.30;4.80;;;21.30;99.90;;;;;;4976537;28;20484;-66
2021/07/02 09:37:40;;;;;;;6.27;5.63;;;21.50;98.40;;;;;;4976522;28;20483;-66
2021/07/02 09:40:23;;;;;;;5.57;5.00;;;21.90;98.50;;;;;;4975953;28;21981;-66
2021/07/02 09:43:04;;;;;;;6.40;5.37;;;22.00;97.80;;;;;;4956080;29;20417;-66
2021/07/02 09:45:32;;;;;;;5.40;4.90;;;21.80;97.80;;;;;;4957449;29;20417;-66
2021/07/02 09:48:09;;;;;;;4.87;4.37;;;21.90;98.40;;;;;;4956778;28;20529;-66
2021/07/02 09:50:36;;;;;;;6.20;5.70;;;21.90;98.40;;;;;;4956921;29;20498;-66
2021/07/02 09:53:06;;;;;;;7.00;5.47;;;21.90;99.00;;;;;;4957079;29;20417;-66
2021/07/02 09:55:34;;;;;;;6.07;5.53;;;22.10;99.30;;;;;;4956730;29;20446;-66
2021/07/02 09:58:11;;;;;;;5.97;5.03;;;22.10;99.00;;;;;;4956837;28;20802;-68
2021/07/02 10:00:57;;;;;;;6.50;5.90;;;21.90;99.60;;;;;;4957341;28;20422;-66
2021/07/02 10:03:30;;;;;;;6.13;5.53;;;21.90;99.80;;;;;;4969861;28;20455;-66
2021/07/02 10:06:01;;;;;;;7.30;6.60;;;21.80;99.90;;;;;;4976213;28;20881;-66
2021/07/02 10:08:35;;;;;;;7.80;7.00;;;21.60;99.90;;;;;;4976024;28;20453;-66
2021/07/02 10:11:02;;;;;;;6.90;6.23;;;21.40;99.90;;;;;;4975902;28;20434;-65
2021/07/02 10:13:33;;;;;;;6.50;5.40;;;21.70;99.90;;;;;;4976084;28;20421;-66
2021/07/02 10:16:01;;;;;;;8.73;5.70;;;22.20;99.40;;;;;;4975998;28;20472;-66
2021/07/02 10:18:30;;;;;;;6.30;5.70;;;22.50;98.10;;;;;;4975691;28;20438;-66
2021/07/02 10:20:59;;;;;;;6.30;5.70;;;22.50;98.30;;;;;;4977204;28;20400;-66
2021/07/02 10:23:32;;;;;;;6.30;5.73;;;22.30;98.00;;;;;;4976047;28;20781;-66
2021/07/02 10:25:58;;;;;;;6.00;5.23;;;22.00;98.80;;;;;;4976027;28;20820;-65
2021/07/02 10:28:25;;;;;;;9.13;6.47;;;21.80;99.20;;;;;;4975965;28;20503;-66
2021/07/02 10:30:52;;;;;;;5.70;5.20;;;22.00;98.90;;;;;;4975853;28;20424;-66
2021/07/02 10:33:23;;;;;;;5.50;5.00;;;22.00;98.40;;;;;;4975251;28;20449;-66
2021/07/02 10:35:58;;;;;;;5.57;4.90;;;22.00;97.60;;;;;;4975851;28;20433;-66
2021/07/02 10:38:36;;;;;;;6.30;5.30;;;22.00;97.70;;;;;;4975691;28;20507;-66
2021/07/02 10:41:19;;;;;;;6.40;5.40;;;22.30;97.20;;;;;;4975376;28;20389;-66
2021/07/02 10:44:07;;;;;;;6.13;5.40;;;22.40;97.20;;;;;;4975808;28;20468;-66
2021/07/02 10:46:42;;;;;;;7.27;4.73;;;22.30;96.40;;;;;;4975391;28;20459;-66
2021/07/02 10:49:12;;;;;;;6.70;6.00;;;22.30;96.90;;;;;;4975519;28;20475;-66
2021/07/02 10:51:49;;;;;;;5.60;5.03;;;22.70;96.90;;;;;;4975950;28;20404;-66
2021/07/02 10:54:21;;;;;;;5.87;5.30;;;23.10;96.60;;;;;;4975992;28;20397;-66
2021/07/02 10:56:53;;;;;;;5.20;4.70;;;23.20;96.00;;;;;;4975554;28;20491;-66
2021/07/02 10:59:19;;;;;;;5.20;4.70;;;23.40;94.40;;;;;;4975717;28;20401;-67
2021/07/02 11:02:03;;;;;;;6.13;5.63;;;23.70;94.00;;;;;;4975148;28;20468;-67
2021/07/02 11:04:51;;;;;;;5.87;4.73;;;23.50;93.40;;;;;;4974934;28;20389;-67
2021/07/02 11:07:21;;;;;;;5.83;5.00;;;23.40;93.70;;;;;;4974122;28;20452;-66
2021/07/02 11:09:50;;;;;;;5.23;4.73;;;23.20;94.00;;;;;;4975106;28;20427;-66
2021/07/02 11:12:22;;;;;;;5.77;5.17;;;23.30;94.90;;;;;;4975340;28;20403;-66
2021/07/02 11:14:54;;;;;;;5.93;5.33;;;23.40;95.00;;;;;;4971071;28;20772;-67
2021/07/02 11:17:26;;;;;;;9.03;5.60;;;23.50;94.30;;;;;;4964289;28;20512;-66
2021/07/02 11:20:04;;;;;;;10.60;5.90;;;23.50;93.70;;;;;;4955529;28;20398;-67
2021/07/02 11:22:34;;;;;;;5.00;4.47;;;23.50;94.80;;;;;;4955736;28;20433;-67
2021/07/02 11:25:06;;;;;;;5.87;5.37;;;23.60;93.30;;;;;;4955430;28;20906;-68
2021/07/02 11:27:44;;;;;;;5.57;5.07;;;23.50;94.00;;;;;;4955642;28;20430;-68
2021/07/02 11:30:13;;;;;;;6.53;5.27;;;23.80;92.90;;;;;;4955420;28;20458;-68
2021/07/02 11:32:45;;;;;;;5.97;5.37;;;23.90;93.10;;;;;;4962953;28;20808;-68
2021/07/02 11:35:22;;;;;;;5.80;5.30;;;24.20;92.80;;;;;;4974333;28;20938;-67
2021/07/02 11:38:05;;;;;;;5.27;4.77;;;25.10;92.50;;;;;;4974528;28;20479;-68
2021/07/02 11:40:31;;;;;;;6.23;5.30;;;24.60;92.20;;;;;;4974712;28;20889;-67
2021/07/02 11:42:58;;;;;;;6.23;5.63;;;24.30;93.10;;;;;;4973766;28;20460;-68
2021/07/02 11:45:50;;;;;;;6.87;6.17;;;24.90;93.50;;;;;;4974716;28;20173;-68
2021/07/02 11:48:24;;;;;;;6.30;5.60;;;26.90;89.50;;;;;;4973844;28;20941;-68
2021/07/02 11:50:58;;;;;;;6.07;5.47;;;27.80;84.00;;;;;;4974444;28;20404;-68
2021/07/02 11:53:30;;;;;;;6.20;5.70;;;28.30;81.90;;;;;;4974634;28;20409;-68
2021/07/02 11:56:02;;;;;;;6.27;5.63;;;28.00;83.00;;;;;;4974662;28;20476;-68
2021/07/02 11:58:32;;;;;;;6.27;5.67;;;26.90;82.10;;;;;;4974567;28;20425;-68
2021/07/02 12:00:59;;;;;;;5.30;4.80;;;26.80;84.20;;;;;;4974557;28;20405;-68
2021/07/02 12:03:25;;;;;;;6.40;5.47;;;27.90;80.10;;;;;;4973906;28;20444;-68
2021/07/02 12:05:59;;;;;;;6.67;5.97;;;28.10;81.40;;;;;;4974437;28;20409;-69
2021/07/02 12:08:28;;;;;;;7.37;5.30;;;28.60;79.30;;;;;;4974222;28;20451;-67
2021/07/02 12:10:55;;;;;;;7.30;6.07;;;29.70;75.30;;;;;;4974286;28;20408;-68
2021/07/02 12:13:24;;;;;;;5.67;5.20;;;29.30;76.10;;;;;;4974128;28;20451;-68
2021/07/02 12:16:07;;;;;;;10.57;5.73;;;29.10;76.20;;;;;;4974293;28;20444;-68
2021/07/02 12:18:36;;;;;;;7.17;5.77;;;28.40;76.80;;;;;;4973748;28;20427;-68
2021/07/02 12:21:08;;;;;;;5.73;5.20;;;28.70;74.30;;;;;;4974246;28;20504;-68
2021/07/02 12:23:36;;;;;;;5.70;4.80;;;29.70;74.20;;;;;;4974023;28;20471;-68
2021/07/02 12:26:23;;;;;;;5.77;5.20;;;29.80;71.30;;;;;;4974588;28;20416;-68
2021/07/02 12:28:57;;;;;;;5.80;4.77;;;30.70;68.10;;;;;;4974167;28;20759;-67
2021/07/02 12:31:28;;;;;;;5.77;5.33;;;31.20;66.70;;;;;;4973884;28;20419;-68
2021/07/02 12:33:54;;;;;;;5.43;4.83;;;31.50;66.40;;;;;;4973540;28;20440;-68
2021/07/02 12:36:21;;;;;;;5.90;5.30;;;30.70;65.80;;;;;;4974242;28;20480;-68
2021/07/02 12:39:06;;;;;;;5.60;5.10;;;29.70;68.60;;;;;;4974059;28;20903;-68
2021/07/02 12:41:46;;;;;;;5.77;5.23;;;28.50;71.40;;;;;;4973901;28;21000;-69
2021/07/02 12:44:22;;;;;;;9.33;5.73;;;28.00;73.20;;;;;;4973976;28;20404;-68
2021/07/02 12:46:48;;;;;;;6.90;6.20;;;28.30;73.60;;;;;;4974090;28;20432;-68
2021/07/02 12:49:27;;;;;;;6.33;5.73;;;30.00;68.60;;;;;;4973431;28;20463;-68